Time;durP1;ratioP1;P1;durP2;ratioP2;P2;SDS_P1;SDS_P2;PMS_P1;PMS_P2;Temp;Humidity;BMP_temperature;BMP_pressure;BME280_temperature;BME280_humidity;BME280_pressure;Samples;Min_cycle;Max_cycle;Signal;HPM_P1;HPM_P2
2021/12/18 00:01:53;;;;;;;3.90;1.67;;;;;;;5.01;76.88;100769.83;1883134;75;21023;-67
2021/12/18 00:04:21;;;;;;;5.33;1.92;;;;;;;4.97;76.84;100778.16;1880437;74;21232;-63
2021/12/18 00:06:50;;;;;;;4.25;1.60;;;;;;;4.97;76.91;100783.37;1892412;74;21113;-63
2021/12/18 00:09:19;;;;;;;4.30;2.10;;;;;;;4.96;76.82;100782.97;1884946;74;21142;-64
2021/12/18 00:11:48;;;;;;;5.10;1.85;;;;;;;4.91;77.08;100784.78;1882613;75;21427;-66
2021/12/18 00:14:17;;;;;;;4.17;2.00;;;;;;;4.93;77.07;100784.76;1887566;74;21039;-66
2021/12/18 00:16:46;;;;;;;3.58;2.17;;;;;;;4.95;76.95;100783.84;1873697;75;21028;-70
2021/12/18 00:19:15;;;;;;;5.47;2.10;;;;;;;4.93;77.00;100789.53;1896571;74;21118;-62
2021/12/18 00:21:43;;;;;;;4.30;1.62;;;;;;;4.97;76.92;100787.73;1891133;74;21125;-61
2021/12/18 00:24:12;;;;;;;4.92;1.90;;;;;;;5.01;76.81;100786.34;1898921;74;21442;-64
2021/12/18 00:26:41;;;;;;;5.20;2.20;;;;;;;5.00;76.77;100784.64;1885566;74;21061;-64
2021/12/18 00:29:10;;;;;;;4.37;1.60;;;;;;;5.00;76.77;100787.70;1891120;74;21077;-62
2021/12/18 00:31:38;;;;;;;4.03;1.92;;;;;;;5.01;76.73;100792.02;1878803;75;21055;-63
2021/12/18 00:34:07;;;;;;;3.67;1.87;;;;;;;5.05;76.66;100791.08;1879523;74;21544;-62
2021/12/18 00:36:36;;;;;;;3.67;1.40;;;;;;;5.05;76.55;100791.53;1866095;76;21111;-64
2021/12/18 00:39:06;;;;;;;4.00;1.98;;;;;;;5.05;76.53;100791.53;1874680;76;21591;-63
2021/12/18 00:44:05;;;;;;;5.12;2.08;;;;;;;5.06;76.31;100788.05;1874594;76;21138;-63
2021/12/18 00:46:37;;;;;;;3.02;1.60;;;;;;;5.03;76.31;100789.82;1876631;76;21131;-67
2021/12/18 00:49:08;;;;;;;5.72;2.20;;;;;;;5.06;76.25;100795.42;1852388;76;21475;-64
2021/12/18 00:51:37;;;;;;;4.62;2.10;;;;;;;5.05;76.18;100791.08;1875521;75;21177;-66
2021/12/18 00:54:07;;;;;;;3.62;1.65;;;;;;;5.00;76.24;100797.69;1874990;76;21507;-65
2021/12/18 00:56:36;;;;;;;6.00;1.82;;;;;;;4.98;76.30;100794.66;1870959;76;21092;-63
2021/12/18 00:59:05;;;;;;;4.83;2.02;;;;;;;4.97;76.28;100796.42;1881912;75;21092;-63
2021/12/18 01:01:33;;;;;;;5.42;2.00;;;;;;;4.92;76.45;100796.06;1868092;76;21458;-63
2021/12/18 01:04:03;;;;;;;4.62;2.25;;;;;;;4.86;76.55;100789.19;1872130;76;21024;-66
2021/12/18 01:06:32;;;;;;;4.50;2.00;;;;;;;4.80;76.68;100786.69;1880291;76;21102;-64
2021/12/18 01:09:00;;;;;;;4.05;1.70;;;;;;;4.76;76.70;100787.62;1872696;76;21081;-64
2021/12/18 01:11:44;;;;;;;5.72;2.20;;;;;;;4.78;76.75;100787.16;1877781;76;21016;-64
2021/12/18 01:14:35;;;;;;;4.55;2.30;;;;;;;4.80;76.59;100784.08;1878856;75;21044;-64
2021/12/18 01:24:58;;;;;;;4.12;2.20;;;;;;;4.76;76.83;100792.84;1879572;76;21028;-63
2021/12/18 01:27:27;;;;;;;4.17;1.82;;;;;;;4.79;76.64;100796.69;1879635;76;21126;-63
2021/12/18 01:29:56;;;;;;;4.03;1.92;;;;;;;4.74;76.66;100803.29;1879410;76;21064;-61
2021/12/18 01:32:27;;;;;;;4.40;2.08;;;;;;;4.74;76.65;100807.63;1877047;76;21629;-59
2021/12/18 01:34:56;;;;;;;5.87;2.67;;;;;;;4.69;76.55;100814.67;1886121;76;21082;-61
2021/12/18 01:37:26;;;;;;;5.87;2.50;;;;;;;4.67;76.60;100813.80;1892348;76;21531;-61
2021/12/18 01:39:55;;;;;;;5.50;2.25;;;;;;;4.65;76.69;100821.67;1858844;77;21066;-63
2021/12/18 01:43:03;;;;;;;4.53;2.37;;;;;;;4.61;76.78;100827.37;1881210;76;21454;-62
2021/12/18 01:53:06;;;;;;;5.90;2.45;;;;;;;4.70;76.73;100820.30;1856724;77;21098;-66
2021/12/18 01:55:36;;;;;;;6.90;3.05;;;;;;;4.73;76.70;100818.95;1856376;77;21153;-65
2021/12/18 01:58:06;;;;;;;6.78;3.05;;;;;;;4.74;76.78;100818.05;1858209;76;21074;-65
2021/12/18 02:00:40;;;;;;;6.20;2.75;;;;;;;4.73;76.81;100818.95;1856684;77;21112;-65
2021/12/18 02:03:10;;;;;;;5.70;2.72;;;;;;;4.74;76.89;100818.05;1856498;77;21070;-65
2021/12/18 02:05:39;;;;;;;7.03;2.70;;;;;;;4.67;76.91;100817.30;1856509;77;21500;-65
2021/12/18 02:08:08;;;;;;;6.47;2.98;;;;;;;4.57;77.14;100819.14;1856712;77;21532;-66
2021/12/18 02:10:55;;;;;;;6.12;2.55;;;;;;;4.54;77.34;100822.27;1856424;77;21535;-65
2021/12/18 02:13:37;;;;;;;5.83;3.20;;;;;;;4.53;77.36;100822.67;1874045;76;21048;-67
2021/12/18 02:21:33;;;;;;;9.38;4.33;;;;;;;4.36;77.16;100821.59;1889969;76;21135;-65
2021/12/18 02:24:02;;;;;;;6.72;3.42;;;;;;;4.29;77.18;100826.45;1856211;77;21160;-65
2021/12/18 02:26:31;;;;;;;9.05;3.95;;;;;;;4.24;77.43;100833.45;1856679;77;21496;-65
2021/12/18 02:29:02;;;;;;;7.47;3.35;;;;;;;4.16;77.69;100836.15;1855696;77;21568;-65
2021/12/18 02:31:31;;;;;;;8.60;3.95;;;;;;;4.18;77.83;100836.14;1857004;77;21135;-62
2021/12/18 02:34:03;;;;;;;8.20;3.80;;;;;;;4.21;77.72;100838.27;1858731;76;21109;-64
2021/12/18 02:36:31;;;;;;;10.15;4.05;;;;;;;4.21;77.83;100834.81;1848371;77;21131;-64
2021/12/18 02:39:21;;;;;;;8.73;4.00;;;;;;;4.21;77.83;100839.58;1840530;78;21149;-65
2021/12/18 02:44:07;;;;;;;8.73;3.25;;;;;;;4.24;77.71;100846.07;1878749;76;21019;-65
2021/12/18 02:46:36;;;;;;;8.65;3.58;;;;;;;4.22;77.77;100845.23;1878502;76;21525;-64
2021/12/18 02:49:11;;;;;;;9.53;4.03;;;;;;;4.23;77.86;100850.84;1883762;76;21038;-65
2021/12/18 02:51:40;;;;;;;10.23;4.17;;;;;;;4.24;77.75;100854.30;1883579;76;21047;-67
2021/12/18 02:54:09;;;;;;;10.50;4.55;;;;;;;4.23;77.92;100858.66;1883725;76;21433;-63
2021/12/18 02:56:38;;;;;;;8.65;4.10;;;;;;;4.27;77.94;100859.50;1883811;76;21132;-65
2021/12/18 02:59:09;;;;;;;10.10;3.75;;;;;;;4.27;78.03;100861.25;1879210;76;21034;-63
2021/12/18 03:01:41;;;;;;;10.08;4.22;;;;;;;4.28;77.98;100868.17;1878831;76;21122;-62
2021/12/18 03:04:27;;;;;;;8.03;3.65;;;;;;;4.28;77.81;100866.86;1878615;76;21047;-67
2021/12/18 03:06:46;;;;;;;6.85;3.42;;;;;;;4.24;77.82;100873.85;1878848;76;21049;-68
2021/12/18 03:25:21;;;;;;;7.05;3.50;;;;;;;3.96;77.68;100871.98;1885912;76;21161;-62
2021/12/18 03:27:49;;;;;;;9.48;3.90;;;;;;;3.95;77.57;100875.48;1885970;76;21054;-62
2021/12/18 03:30:18;;;;;;;7.87;4.03;;;;;;;3.92;77.61;100879.41;1885857;76;21469;-62
2021/12/18 03:32:47;;;;;;;6.83;3.35;;;;;;;3.91;77.72;100881.16;1883981;76;20999;-61
2021/12/18 03:35:17;;;;;;;8.20;4.20;;;;;;;3.92;77.87;100882.87;1878726;76;21474;-63
2021/12/18 03:37:46;;;;;;;7.62;4.03;;;;;;;3.93;77.94;100885.02;1878834;76;21090;-61
2021/12/18 03:40:17;;;;;;;8.85;4.58;;;;;;;3.91;77.98;100892.88;1883114;76;21112;-61
2021/12/18 03:42:47;;;;;;;4.75;3.15;;;;;;;3.86;78.03;100892.91;1885817;76;21128;-62
2021/12/18 03:45:19;;;;;;;7.30;3.72;;;;;;;3.87;78.04;100889.85;1885714;76;21517;-62
2021/12/18 03:47:49;;;;;;;6.62;3.20;;;;;;;3.91;78.03;100893.30;1884845;76;21113;-65
2021/12/18 03:50:18;;;;;;;6.25;3.55;;;;;;;3.97;77.86;100893.26;1885928;76;21097;-64
2021/12/18 03:52:47;;;;;;;7.22;3.98;;;;;;;4.01;77.75;100897.56;1885823;76;21493;-64
2021/12/18 03:55:16;;;;;;;5.97;3.10;;;;;;;4.00;77.75;100902.33;1885827;76;21517;-62
2021/12/18 03:57:45;;;;;;;4.75;2.80;;;;;;;3.97;77.81;100898.02;1885904;76;21454;-63
2021/12/18 04:00:16;;;;;;;5.62;2.85;;;;;;;3.92;77.66;100904.16;1885784;76;21038;-64
2021/12/18 04:02:45;;;;;;;4.62;2.98;;;;;;;3.80;77.90;100908.59;1884391;76;21582;-64
2021/12/18 04:05:14;;;;;;;3.72;2.83;;;;;;;3.78;78.05;100923.38;1880675;76;21053;-62
2021/12/18 04:07:46;;;;;;;5.08;2.92;;;;;;;3.78;78.20;100923.38;1880279;76;21535;-64
2021/12/18 04:10:16;;;;;;;5.17;3.67;;;;;;;3.77;78.25;100925.55;1880255;76;21128;-62
2021/12/18 04:12:46;;;;;;;7.90;3.30;;;;;;;3.77;78.25;100926.84;1880121;76;21047;-64
2021/12/18 04:15:15;;;;;;;6.05;3.12;;;;;;;3.77;78.29;100920.78;1878802;76;21046;-64
2021/12/18 04:17:44;;;;;;;4.08;2.65;;;;;;;3.81;78.18;100922.48;1878838;76;21039;-62
2021/12/18 04:20:13;;;;;;;4.47;2.55;;;;;;;3.81;78.11;100920.73;1878712;76;21145;-64
2021/12/18 04:22:42;;;;;;;4.92;2.85;;;;;;;3.74;78.13;100923.40;1878699;76;21567;-65
2021/12/18 04:25:11;;;;;;;5.45;3.10;;;;;;;3.74;78.23;100929.91;1878669;76;21545;-65
2021/12/18 04:27:39;;;;;;;6.00;3.72;;;;;;;3.74;78.25;100935.12;1880102;76;21469;-66
2021/12/18 04:30:09;;;;;;;5.10;3.12;;;;;;;3.75;78.33;100938.17;1883793;76;21531;-65
2021/12/18 04:32:38;;;;;;;6.33;3.30;;;;;;;3.78;78.30;100946.82;1880003;76;21055;-62
2021/12/18 04:35:07;;;;;;;9.58;2.95;;;;;;;3.84;78.12;100949.37;1878834;76;21485;-62
2021/12/18 04:37:36;;;;;;;6.42;3.45;;;;;;;3.85;78.06;100942.41;1883323;76;21164;-63
2021/12/18 04:40:06;;;;;;;5.75;3.20;;;;;;;3.86;77.83;100946.30;1887960;76;21131;-62
2021/12/18 04:42:35;;;;;;;4.35;2.27;;;;;;;3.92;77.66;100951.05;1888425;75;21054;-63
2021/12/18 04:45:05;;;;;;;5.55;3.37;;;;;;;3.89;77.65;100949.77;1888132;75;21120;-69
2021/12/18 04:47:34;;;;;;;9.75;4.65;;;;;;;3.85;77.60;100958.04;1888109;75;21054;-66
2021/12/18 04:50:03;;;;;;;5.60;3.67;;;;;;;3.84;77.61;100954.58;1888486;75;21061;-62
2021/12/18 04:52:32;;;;;;;5.08;3.47;;;;;;;3.81;77.79;100962.41;1888167;75;21069;-62
2021/12/18 04:55:01;;;;;;;4.72;2.95;;;;;;;3.81;77.92;100961.55;1888632;75;21075;-62
2021/12/18 04:57:30;;;;;;;5.87;3.15;;;;;;;3.81;77.91;100959.80;1888924;75;21466;-64
2021/12/18 04:59:58;;;;;;;6.28;2.77;;;;;;;3.82;77.74;100968.50;1888463;75;21523;-65
2021/12/18 05:02:41;;;;;;;4.55;2.72;;;;;;;3.82;77.69;100969.36;1888205;75;21567;-64
2021/12/18 05:04:58;;;;;;;3.85;2.40;;;;;;;3.83;77.63;100968.47;1887987;75;21152;-63
2021/12/18 05:07:27;;;;;;;6.58;3.40;;;;;;;3.84;77.57;100971.95;1888102;75;21136;-61
2021/12/18 05:09:56;;;;;;;5.08;2.92;;;;;;;3.79;77.57;100970.67;1888389;75;21061;-61
2021/12/18 05:12:26;;;;;;;5.33;3.05;;;;;;;3.76;77.67;100974.62;1889798;76;21128;-67
2021/12/18 05:14:55;;;;;;;6.03;2.70;;;;;;;3.71;77.89;100980.70;1889560;76;21070;-69
2021/12/18 05:17:24;;;;;;;4.58;3.02;;;;;;;3.68;78.02;100986.81;1889551;76;21492;-69
2021/12/18 05:19:53;;;;;;;6.22;3.17;;;;;;;3.70;78.06;100986.36;1889102;76;21109;-69
2021/12/18 05:22:22;;;;;;;4.55;2.90;;;;;;;3.68;78.00;100994.62;1887684;75;21113;-63
2021/12/18 05:24:50;;;;;;;4.95;3.08;;;;;;;3.72;77.93;100991.12;1889245;75;21481;-64
2021/12/18 05:27:19;;;;;;;4.78;3.10;;;;;;;3.74;77.80;100994.58;1888055;75;21465;-65
2021/12/18 05:29:48;;;;;;;4.65;2.80;;;;;;;3.70;77.83;101000.69;1888064;75;21554;-72
2021/12/18 05:32:17;;;;;;;3.30;2.10;;;;;;;3.74;77.64;101001.09;1889059;75;21118;-68
2021/12/18 05:34:45;;;;;;;5.58;3.40;;;;;;;3.76;77.60;100998.06;1892346;76;21047;-68
2021/12/18 05:37:20;;;;;;;6.70;3.77;;;;;;;3.79;77.55;101001.08;1892076;76;21085;-72
2021/12/18 05:39:48;;;;;;;4.80;3.55;;;;;;;3.83;77.61;101006.23;1891897;76;21018;-68
2021/12/18 05:42:18;;;;;;;6.60;3.40;;;;;;;3.89;77.61;101009.23;1884014;76;21108;-66
2021/12/18 05:44:46;;;;;;;5.12;2.87;;;;;;;3.95;77.52;101005.30;1889750;76;21473;-66
2021/12/18 05:47:15;;;;;;;5.37;3.10;;;;;;;4.00;77.37;101007.86;1889879;76;21438;-65
2021/12/18 05:49:44;;;;;;;8.18;3.27;;;;;;;3.98;77.27;101009.61;1889882;76;21562;-65
2021/12/18 05:52:13;;;;;;;4.67;3.35;;;;;;;4.02;77.31;101015.22;1885576;76;21513;-67
2021/12/18 05:54:42;;;;;;;6.42;3.00;;;;;;;3.98;77.42;101006.56;1889953;76;21466;-66
2021/12/18 05:57:14;;;;;;;6.03;3.35;;;;;;;3.92;77.67;101014.88;1889763;76;21108;-65
2021/12/18 05:59:41;;;;;;;7.03;3.92;;;;;;;3.94;77.68;101009.22;1846748;76;21135;-66
2021/12/18 06:02:11;;;;;;;4.85;3.17;;;;;;;3.99;77.72;101010.05;1827340;78;21162;-64
2021/12/18 06:04:42;;;;;;;4.08;2.70;;;;;;;4.00;77.76;101014.38;1827340;78;21451;-65
2021/12/18 06:07:27;;;;;;;5.25;2.95;;;;;;;4.00;77.70;101012.66;1827526;77;21126;-67
2021/12/18 06:09:41;;;;;;;6.80;3.70;;;;;;;3.97;77.86;101024.39;1829730;76;21032;-67
2021/12/18 06:12:11;;;;;;;6.08;3.22;;;;;;;3.95;77.87;101026.59;1884501;76;21046;-67
2021/12/18 06:14:39;;;;;;;5.42;2.98;;;;;;;3.97;77.93;101032.20;1889848;76;21453;-67
2021/12/18 06:17:08;;;;;;;6.03;3.77;;;;;;;4.05;77.69;101031.70;1889905;76;21055;-66
2021/12/18 06:19:37;;;;;;;7.50;3.60;;;;;;;4.09;77.67;101033.84;1883699;76;21480;-65
2021/12/18 06:22:06;;;;;;;4.03;2.80;;;;;;;4.05;77.75;101042.12;1827208;78;21083;-65
2021/12/18 06:24:35;;;;;;;5.50;3.50;;;;;;;4.02;77.81;101046.48;1827306;78;21486;-65
2021/12/18 06:27:05;;;;;;;6.75;3.58;;;;;;;4.03;77.72;101043.02;1827255;78;21531;-65
2021/12/18 06:29:34;;;;;;;5.72;3.50;;;;;;;4.10;77.63;101051.67;1827293;78;21561;-65
2021/12/18 06:32:03;;;;;;;5.55;3.40;;;;;;;4.14;77.48;101056.83;1832219;76;21165;-63
2021/12/18 06:34:32;;;;;;;6.15;3.47;;;;;;;4.15;77.41;101066.39;1827327;78;21048;-69
2021/12/18 06:37:01;;;;;;;6.45;3.02;;;;;;;4.16;77.36;101067.25;1827419;78;21130;-68
2021/12/18 06:39:29;;;;;;;4.97;3.20;;;;;;;4.14;77.23;101072.47;1874841;76;21082;-71
2021/12/18 06:41:58;;;;;;;5.95;3.60;;;;;;;4.13;77.19;101072.06;1886757;76;21083;-71
2021/12/18 06:44:28;;;;;;;6.08;3.83;;;;;;;4.10;77.27;101075.13;1886756;76;21199;-71
2021/12/18 06:46:57;;;;;;;6.97;3.92;;;;;;;4.07;77.54;101065.56;1887678;76;21055;-68
2021/12/18 06:49:25;;;;;;;7.35;3.75;;;;;;;4.13;77.55;101073.78;1894994;76;21208;-69
2021/12/18 06:51:54;;;;;;;4.83;3.10;;;;;;;4.19;77.51;101070.70;1895125;76;21098;-64
2021/12/18 06:54:23;;;;;;;7.92;4.40;;;;;;;4.22;77.47;101074.60;1895147;76;21079;-69
2021/12/18 06:56:52;;;;;;;6.80;3.42;;;;;;;4.23;77.54;101077.61;1892708;76;21474;-67
2021/12/18 06:59:20;;;;;;;6.00;3.80;;;;;;;4.30;77.49;101081.47;1895146;76;21544;-72
2021/12/18 07:01:52;;;;;;;8.83;3.95;;;;;;;4.44;77.34;101078.31;1894988;74;21547;-68
2021/12/18 07:04:22;;;;;;;7.37;3.83;;;;;;;4.51;77.17;101072.18;1862983;77;21052;-68
2021/12/18 07:06:52;;;;;;;7.12;3.95;;;;;;;4.54;77.17;101079.98;1890667;74;21099;-68
2021/12/18 07:09:21;;;;;;;7.25;3.90;;;;;;;4.64;76.98;101091.19;1938178;74;21042;-67
2021/12/18 07:11:50;;;;;;;7.17;4.15;;;;;;;4.68;76.74;101088.12;1914169;74;21104;-62
2021/12/18 07:14:19;;;;;;;7.55;3.58;;;;;;;4.70;76.71;101094.19;1857939;77;21161;-60
2021/12/18 07:16:48;;;;;;;5.70;4.00;;;;;;;4.70;76.65;101093.73;1864335;75;21086;-63
2021/12/18 07:19:16;;;;;;;6.80;4.20;;;;;;;4.69;76.73;101092.47;1898429;74;21167;-62
2021/12/18 07:21:45;;;;;;;9.05;4.40;;;;;;;4.63;76.62;101091.64;1892601;75;21458;-61
2021/12/18 07:24:14;;;;;;;7.65;4.87;;;;;;;4.53;76.79;101097.80;1887802;75;21493;-62
2021/12/18 07:26:43;;;;;;;8.10;4.50;;;;;;;4.52;76.85;101103.91;1890071;74;21055;-63
2021/12/18 07:29:12;;;;;;;9.43;4.35;;;;;;;4.54;76.75;101103.45;1879237;75;21127;-63
2021/12/18 07:31:40;;;;;;;6.40;4.65;;;;;;;4.57;76.63;101111.23;1892960;75;21585;-60
2021/12/18 07:34:09;;;;;;;10.00;5.03;;;;;;;4.55;76.49;101119.52;1884538;75;21486;-61
2021/12/18 07:36:38;;;;;;;7.67;4.30;;;;;;;4.54;76.46;101121.71;1883061;75;21028;-65
2021/12/18 07:39:07;;;;;;;10.65;5.42;;;;;;;4.56;76.43;101124.31;1886902;76;21532;-62
2021/12/18 07:41:35;;;;;;;8.80;5.60;;;;;;;4.54;76.42;101116.50;1836375;77;21611;-62
2021/12/18 07:44:06;;;;;;;8.93;4.80;;;;;;;4.53;76.45;101113.45;1828288;77;21602;-62
2021/12/18 07:46:37;;;;;;;9.43;4.47;;;;;;;4.53;76.50;101105.63;1831665;77;21147;-59
2021/12/18 07:49:08;;;;;;;6.10;4.20;;;;;;;4.54;76.44;101115.64;1823213;77;21511;-61
2021/12/18 07:51:37;;;;;;;6.17;4.50;;;;;;;4.55;76.57;101110.83;1838550;77;21042;-67
2021/12/18 07:54:07;;;;;;;12.10;4.85;;;;;;;4.56;76.62;101104.30;1853828;77;21124;-61
2021/12/18 07:56:36;;;;;;;7.37;4.87;;;;;;;4.60;76.62;101107.30;1874842;75;21055;-62
2021/12/18 07:59:05;;;;;;;7.97;4.92;;;;;;;4.64;76.51;101106.39;1868743;75;21204;-62
2021/12/18 08:01:34;;;;;;;7.17;4.62;;;;;;;4.66;76.56;101118.58;1875770;75;21015;-60
2021/12/18 08:04:02;;;;;;;9.78;5.03;;;;;;;4.62;76.53;101124.25;1854002;75;21124;-62
2021/12/18 08:06:31;;;;;;;7.12;3.67;;;;;;;4.66;76.41;101130.31;1869709;75;21121;-61
2021/12/18 08:09:00;;;;;;;5.87;4.25;;;;;;;4.69;76.20;101123.77;1854038;77;21062;-62
2021/12/18 08:11:30;;;;;;;5.97;4.20;;;;;;;4.68;76.10;101125.94;1853262;77;21160;-61
2021/12/18 08:13:58;;;;;;;5.90;4.22;;;;;;;4.62;76.19;101127.72;1870803;75;21054;-62
2021/12/18 08:16:27;;;;;;;5.60;4.45;;;;;;;4.64;76.24;101123.34;1850484;76;21057;-61
2021/12/18 08:18:56;;;;;;;7.47;4.85;;;;;;;4.66;76.12;101114.21;1837553;77;21141;-62
2021/12/18 08:21:25;;;;;;;9.13;4.65;;;;;;;4.68;76.13;101122.03;1873685;75;21106;-62
2021/12/18 08:23:53;;;;;;;6.22;3.98;;;;;;;4.73;76.03;101118.95;1855269;77;21074;-62
2021/12/18 08:26:23;;;;;;;5.83;4.17;;;;;;;4.77;75.83;101115.42;1855149;77;21055;-61
2021/12/18 08:28:52;;;;;;;8.10;4.78;;;;;;;4.73;75.83;101115.03;1854658;77;21047;-62
2021/12/18 08:31:20;;;;;;;6.60;3.60;;;;;;;4.71;75.99;101116.34;1855471;77;21512;-62
2021/12/18 08:33:50;;;;;;;5.62;3.70;;;;;;;4.75;75.85;101118.05;1854859;77;21108;-61
2021/12/18 08:36:19;;;;;;;4.92;3.47;;;;;;;4.82;75.60;101121.48;1855223;77;21019;-61
2021/12/18 08:38:48;;;;;;;4.75;3.60;;;;;;;4.83;75.40;101120.58;1855059;77;21050;-62
2021/12/18 08:41:16;;;;;;;6.67;3.65;;;;;;;4.85;75.27;101124.06;1854793;77;21098;-61
2021/12/18 08:43:45;;;;;;;4.67;3.40;;;;;;;4.85;75.15;101124.06;1854982;77;21050;-62
2021/12/18 08:46:14;;;;;;;6.45;3.67;;;;;;;4.84;75.07;101122.32;1846993;77;21098;-62
2021/12/18 08:48:42;;;;;;;4.87;3.10;;;;;;;4.82;74.97;101127.55;1823383;77;21129;-62
2021/12/18 08:51:12;;;;;;;7.05;3.77;;;;;;;4.82;74.89;101128.00;1856583;76;21086;-63
2021/12/18 08:53:40;;;;;;;6.20;4.40;;;;;;;4.76;75.01;101126.76;1856415;76;21489;-62
2021/12/18 08:56:09;;;;;;;6.15;3.65;;;;;;;4.75;75.11;101132.84;1792192;79;21496;-61
2021/12/18 08:58:38;;;;;;;5.05;3.72;;;;;;;4.70;75.22;101133.31;1792711;80;21140;-61
2021/12/18 09:01:06;;;;;;;7.62;4.08;;;;;;;4.75;75.18;101137.61;1790340;79;21096;-61
2021/12/18 09:03:35;;;;;;;6.50;3.47;;;;;;;4.83;75.05;101142.34;1792773;80;21489;-61
2021/12/18 09:06:04;;;;;;;5.25;3.58;;;;;;;4.91;75.04;101144.02;1832614;77;21544;-62
2021/12/18 09:08:33;;;;;;;4.40;3.55;;;;;;;4.95;74.77;101142.66;1810946;77;21607;-61
2021/12/18 09:11:02;;;;;;;5.53;3.40;;;;;;;4.98;74.90;101143.05;1858781;76;21586;-64
2021/12/18 09:13:31;;;;;;;4.95;2.90;;;;;;;4.98;74.95;101141.33;1820387;77;21502;-68
2021/12/18 09:16:00;;;;;;;4.90;3.27;;;;;;;4.98;74.91;101137.83;1873039;76;21493;-68
2021/12/18 09:18:29;;;;;;;4.60;3.02;;;;;;;4.92;74.53;101138.75;1864863;76;21042;-66
2021/12/18 09:20:58;;;;;;;4.05;3.00;;;;;;;4.88;74.67;101138.37;1821421;77;21636;-63
2021/12/18 09:23:26;;;;;;;6.10;3.12;;;;;;;4.88;74.62;101137.06;1819896;77;21269;-69
2021/12/18 09:25:55;;;;;;;6.22;3.83;;;;;;;4.86;74.59;101137.52;1833181;76;22033;-62
2021/12/18 09:28:24;;;;;;;4.85;3.60;;;;;;;4.90;74.54;101144.44;1861383;77;21041;-67
2021/12/18 09:30:53;;;;;;;8.98;4.35;;;;;;;4.94;74.41;101139.64;1861178;76;21468;-68
2021/12/18 09:33:22;;;;;;;4.15;3.08;;;;;;;5.00;74.27;101140.88;1860630;77;21480;-65
2021/12/18 09:35:51;;;;;;;7.28;4.10;;;;;;;4.97;74.16;101140.03;1863271;76;21461;-64
2021/12/18 09:38:20;;;;;;;4.85;3.35;;;;;;;4.95;74.31;101141.34;1882583;76;21207;-64
2021/12/18 09:40:49;;;;;;;5.83;4.05;;;;;;;4.92;74.33;101141.37;1876653;75;21039;-61
2021/12/18 09:43:18;;;;;;;5.53;3.67;;;;;;;4.93;74.36;101150.94;1881705;76;21022;-61
2021/12/18 09:45:47;;;;;;;6.47;4.40;;;;;;;4.95;74.39;101147.02;1884489;75;21019;-62
2021/12/18 09:48:16;;;;;;;4.95;3.55;;;;;;;4.97;74.41;101142.64;1918931;75;21104;-63
2021/12/18 09:50:48;;;;;;;4.42;3.72;;;;;;;4.96;74.38;101148.73;1917449;75;21136;-63
2021/12/18 09:53:15;;;;;;;5.30;3.33;;;;;;;4.90;74.43;101143.13;1893670;76;21070;-63
2021/12/18 09:55:44;;;;;;;5.28;3.47;;;;;;;4.90;74.43;101145.73;1895113;75;21058;-63
2021/12/18 09:58:13;;;;;;;7.90;4.15;;;;;;;4.90;74.50;101155.32;1919148;75;21038;-63
2021/12/18 10:00:42;;;;;;;5.67;3.90;;;;;;;4.82;74.59;101164.08;1918180;75;21132;-63
2021/12/18 10:03:10;;;;;;;5.62;3.58;;;;;;;4.78;74.79;101165.44;1893446;75;21542;-64
2021/12/18 10:05:39;;;;;;;6.30;3.75;;;;;;;4.77;74.74;101168.91;1894329;75;21050;-64
2021/12/18 10:08:17;;;;;;;5.70;3.47;;;;;;;4.68;74.86;101164.62;1919077;75;21030;-66
2021/12/18 10:11:04;;;;;;;5.47;3.98;;;;;;;4.62;74.78;101166.84;1916615;75;21160;-65
2021/12/18 10:13:54;;;;;;;7.20;3.90;;;;;;;4.59;74.78;101177.73;1881460;76;21124;-67
2021/12/18 10:16:24;;;;;;;6.42;4.22;;;;;;;4.57;74.87;101177.73;1881692;76;21050;-65
2021/12/18 10:18:53;;;;;;;10.25;4.35;;;;;;;4.58;74.86;101178.18;1881538;76;21054;-64
2021/12/18 10:21:24;;;;;;;5.15;3.60;;;;;;;4.61;75.02;101175.56;1881785;76;21551;-65
2021/12/18 10:23:54;;;;;;;5.80;3.67;;;;;;;4.58;75.09;101177.33;1881462;76;21116;-67
2021/12/18 10:26:38;;;;;;;7.35;4.08;;;;;;;4.44;75.40;101179.59;1881552;76;21136;-65
2021/12/18 10:29:28;;;;;;;6.00;4.20;;;;;;;4.34;75.83;101183.58;1881744;75;21043;-64
2021/12/18 10:31:59;;;;;;;7.45;4.75;;;;;;;4.37;75.95;101181.81;1881655;76;21050;-65
2021/12/18 10:34:29;;;;;;;6.53;4.28;;;;;;;4.43;75.91;101178.30;1880807;76;21504;-65
2021/12/18 10:37:15;;;;;;;5.75;4.20;;;;;;;4.47;76.00;101173.93;1881514;76;21038;-65
2021/12/18 10:39:47;;;;;;;6.55;4.05;;;;;;;4.46;76.11;101173.05;1881553;76;21105;-65
2021/12/18 10:42:21;;;;;;;7.90;4.60;;;;;;;4.55;76.07;101172.97;1880142;75;21203;-65
2021/12/18 10:45:04;;;;;;;6.35;3.92;;;;;;;4.61;76.05;101172.95;1881386;75;21592;-65
2021/12/18 10:47:54;;;;;;;8.63;4.53;;;;;;;4.74;75.91;101175.03;1881686;76;21113;-65
2021/12/18 10:50:28;;;;;;;5.85;4.08;;;;;;;4.92;75.62;101166.61;1881517;76;21062;-65
2021/12/18 10:53:06;;;;;;;7.15;4.30;;;;;;;5.08;75.40;101168.65;1881647;76;21477;-65
2021/12/18 10:55:41;;;;;;;6.37;4.28;;;;;;;5.19;75.21;101173.32;1881530;76;21539;-65
2021/12/18 10:58:12;;;;;;;8.93;4.92;;;;;;;5.26;75.11;101170.22;1881643;76;21070;-65
2021/12/18 11:01:05;;;;;;;7.97;4.65;;;;;;;5.25;75.19;101175.86;1881509;76;21113;-67
2021/12/18 11:03:37;;;;;;;8.50;4.50;;;;;;;5.27;75.37;101178.02;1881530;76;21047;-65
2021/12/18 11:06:21;;;;;;;7.28;4.47;;;;;;;5.32;75.32;101174.92;1881456;75;21191;-65
2021/12/18 11:09:04;;;;;;;;;;;;;;;5.35;75.26;101181.88;1884270;76;21474;-65
2021/12/18 11:14:38;;;;;;;7.65;4.90;;;;;;;5.29;75.14;101186.69;1881549;76;21023;-66
2021/12/18 11:17:10;;;;;;;4.22;2.72;;;;;;;5.19;75.33;101185.07;1881557;76;21086;-65
2021/12/18 11:19:40;;;;;;;5.57;3.90;;;;;;;5.18;75.18;101188.55;1881729;76;21046;-65
2021/12/18 11:22:15;;;;;;;7.45;4.03;;;;;;;5.18;74.76;101192.05;1881640;76;21050;-65
2021/12/18 11:25:02;;;;;;;6.90;4.03;;;;;;;5.23;74.57;101194.59;1881511;76;21077;-65
2021/12/18 11:27:33;;;;;;;6.95;4.75;;;;;;;5.26;74.28;101190.66;1881523;76;21018;-65
2021/12/18 11:30:11;;;;;;;6.35;4.12;;;;;;;5.28;74.07;101191.51;1881481;76;21043;-65
2021/12/18 11:32:42;;;;;;;7.17;4.78;;;;;;;5.26;73.98;101191.11;1881467;76;21038;-66
2021/12/18 11:35:23;;;;;;;7.22;5.08;;;;;;;5.22;74.02;101194.19;1881589;76;21031;-64
2021/12/18 11:38:03;;;;;;;6.85;4.30;;;;;;;5.25;74.05;101196.75;1881474;76;21035;-65
2021/12/18 11:40:35;;;;;;;6.78;4.97;;;;;;;5.23;73.97;101201.12;1881453;76;21010;-64
2021/12/18 11:43:15;;;;;;;8.68;4.70;;;;;;;5.12;74.00;101206.89;1881494;75;21054;-64
2021/12/18 11:45:44;;;;;;;7.80;5.10;;;;;;;5.13;73.93;101199.50;1873992;76;21056;-64
2021/12/18 11:48:13;;;;;;;7.28;4.60;;;;;;;5.06;73.80;101197.81;1881603;76;21031;-64
2021/12/18 11:50:42;;;;;;;7.72;4.35;;;;;;;4.98;73.85;101202.66;1881442;76;21097;-65
2021/12/18 11:53:19;;;;;;;8.78;5.65;;;;;;;4.96;73.94;101210.95;1881619;75;21100;-65
2021/12/18 11:55:53;;;;;;;6.95;4.12;;;;;;;4.95;74.05;101203.98;1901814;74;21023;-62
2021/12/18 11:58:25;;;;;;;6.92;4.17;;;;;;;4.98;74.04;101205.27;1891834;74;21034;-61
2021/12/18 12:01:05;;;;;;;8.00;4.35;;;;;;;5.02;73.97;101203.50;1889226;74;21152;-61
2021/12/18 12:03:38;;;;;;;7.75;4.45;;;;;;;5.05;73.87;101202.59;1893518;76;21050;-62
2021/12/18 12:06:34;;;;;;;8.40;4.73;;;;;;;5.10;73.76;101205.59;1915576;74;21038;-63
2021/12/18 12:09:33;;;;;;;9.95;4.87;;;;;;;5.13;73.68;101208.63;1885780;76;21609;-66
2021/12/18 12:11:58;;;;;;;;;;;;;;;5.25;73.49;101220.70;1889073;74;21043;-64
2021/12/18 12:14:29;;;;;;;8.33;4.25;;;;;;;5.22;73.51;101217.69;1910351;75;20141;-65
2021/12/18 12:17:06;;;;;;;7.50;4.35;;;;;;;5.16;73.50;101222.94;1900018;74;21135;-63
2021/12/18 12:19:39;;;;;;;6.15;3.47;;;;;;;5.16;73.53;101221.63;1885560;76;20997;-61
2021/12/18 12:22:13;;;;;;;5.45;3.55;;;;;;;5.13;73.44;101229.07;1885685;76;21117;-62
2021/12/18 12:24:57;;;;;;;5.03;3.02;;;;;;;5.05;73.36;101235.22;1876370;76;21517;-64
2021/12/18 12:27:34;;;;;;;4.35;2.87;;;;;;;4.95;73.15;101238.36;1886364;74;21048;-65
2021/12/18 12:30:06;;;;;;;9.33;3.90;;;;;;;4.94;73.19;101235.30;1885838;76;21048;-62
2021/12/18 12:32:37;;;;;;;7.75;3.37;;;;;;;4.90;73.24;101240.13;1884500;76;21060;-64
2021/12/18 12:35:14;;;;;;;6.47;3.75;;;;;;;4.76;73.08;101234.58;1885917;76;21080;-61
2021/12/18 12:37:46;;;;;;;5.80;3.37;;;;;;;4.68;73.44;101243.33;1886360;74;21162;-64